createdAt,value
2023-05-11T00:00:30.665Z,0
2023-05-11T00:01:30.667Z,0
2023-05-11T00:02:30.747Z,0
2023-05-11T00:03:30.729Z,0
2023-05-11T00:04:30.697Z,0
2023-05-11T00:05:30.658Z,0
2023-05-11T00:06:30.660Z,0
2023-05-11T00:07:30.663Z,0
2023-05-11T00:08:30.677Z,0
2023-05-11T00:09:30.673Z,0
2023-05-11T00:10:30.671Z,0
2023-05-11T00:11:30.650Z,0
2023-05-11T00:12:30.664Z,0
2023-05-11T00:13:30.662Z,0
2023-05-11T00:14:30.662Z,0
2023-05-11T00:15:30.706Z,0
2023-05-11T00:16:30.821Z,0
2023-05-11T00:17:30.674Z,0
2023-05-11T00:18:30.699Z,0
2023-05-11T00:19:30.671Z,0
2023-05-11T00:20:30.653Z,0
2023-05-11T00:21:30.669Z,0
2023-05-11T00:22:30.659Z,0
2023-05-11T00:23:30.664Z,0
2023-05-11T00:24:30.684Z,0
2023-05-11T00:25:30.675Z,0
2023-05-11T00:26:30.657Z,0
2023-05-11T00:27:30.669Z,0
2023-05-11T00:28:30.707Z,0
2023-05-11T00:29:30.668Z,0
2023-05-11T00:30:30.668Z,0
2023-05-11T00:31:30.806Z,0
2023-05-11T00:32:30.670Z,0
2023-05-11T00:33:30.655Z,0
2023-05-11T00:34:30.671Z,0
2023-05-11T00:35:30.656Z,0
2023-05-11T00:36:30.662Z,0
2023-05-11T00:37:30.661Z,0
2023-05-11T00:38:30.664Z,0
2023-05-11T00:39:30.668Z,0
2023-05-11T00:40:30.645Z,0
2023-05-11T00:41:30.655Z,0
2023-05-11T00:42:30.664Z,0
2023-05-11T00:43:30.652Z,0
2023-05-11T00:44:30.656Z,0
2023-05-11T00:45:30.666Z,0
2023-05-11T00:46:30.720Z,0
2023-05-11T00:47:30.680Z,0
2023-05-11T00:48:30.653Z,0
2023-05-11T00:49:30.660Z,0
2023-05-11T00:50:30.660Z,0
2023-05-11T00:51:30.654Z,0
2023-05-11T00:52:30.665Z,0
2023-05-11T00:53:30.641Z,0
2023-05-11T00:54:30.663Z,0
2023-05-11T00:55:30.666Z,0
2023-05-11T00:56:30.652Z,0
2023-05-11T00:57:30.647Z,0
2023-05-11T00:58:30.654Z,0
2023-05-11T00:59:30.656Z,0
2023-05-11T01:00:30.688Z,0
2023-05-11T01:01:30.652Z,0
2023-05-11T01:02:30.669Z,0
2023-05-11T01:03:30.702Z,0
2023-05-11T01:04:30.663Z,0
2023-05-11T01:05:30.654Z,0
2023-05-11T01:06:30.656Z,0
2023-05-11T01:07:30.659Z,0
2023-05-11T01:08:30.659Z,0
2023-05-11T01:09:30.664Z,0
2023-05-11T01:10:30.646Z,0
2023-05-11T01:11:30.785Z,0
2023-05-11T01:12:30.650Z,0
2023-05-11T01:13:30.648Z,0
2023-05-11T01:14:30.665Z,0
2023-05-11T01:15:30.670Z,0
2023-05-11T01:16:30.702Z,0
2023-05-11T01:17:30.692Z,0
2023-05-11T01:18:30.707Z,0
2023-05-11T01:19:30.653Z,0
2023-05-11T01:20:30.664Z,0
2023-05-11T01:21:30.651Z,0
2023-05-11T01:22:30.657Z,0
2023-05-11T01:23:30.655Z,0
2023-05-11T01:24:30.673Z,0
2023-05-11T01:25:30.659Z,0
2023-05-11T01:26:30.669Z,0
2023-05-11T01:27:30.655Z,0
2023-05-11T01:28:30.666Z,0
2023-05-11T01:29:30.670Z,0
2023-05-11T01:30:30.667Z,0
2023-05-11T01:31:30.676Z,0
2023-05-11T01:32:30.681Z,0
2023-05-11T01:33:30.665Z,0
2023-05-11T01:34:30.677Z,0
2023-05-11T01:35:30.665Z,0
2023-05-11T01:36:30.652Z,0
2023-05-11T01:37:30.657Z,0
2023-05-11T01:38:30.656Z,0
2023-05-11T01:39:30.662Z,0
2023-05-11T01:40:30.660Z,0
2023-05-11T01:41:30.645Z,0
2023-05-11T01:42:30.661Z,0
2023-05-11T01:43:30.647Z,0
2023-05-11T01:44:30.662Z,0
2023-05-11T01:45:30.665Z,0
2023-05-11T01:46:30.806Z,0
2023-05-11T01:47:30.773Z,0
2023-05-11T01:48:30.658Z,0
2023-05-11T01:49:30.654Z,0
2023-05-11T01:50:30.662Z,0
2023-05-11T01:51:30.655Z,0
2023-05-11T01:52:30.660Z,0
2023-05-11T01:53:30.657Z,0
2023-05-11T01:54:30.664Z,0
2023-05-11T01:55:30.644Z,0
2023-05-11T01:56:30.656Z,0
2023-05-11T01:57:30.649Z,0
2023-05-11T01:58:30.649Z,0
2023-05-11T01:59:30.661Z,0
2023-05-11T02:00:30.674Z,0
2023-05-11T02:01:30.711Z,0
2023-05-11T02:02:30.720Z,0
2023-05-11T02:03:30.775Z,0
2023-05-11T02:04:30.661Z,0
2023-05-11T02:05:30.655Z,0
2023-05-11T02:06:30.662Z,0
2023-05-11T02:07:30.654Z,0
2023-05-11T02:08:30.653Z,0
2023-05-11T02:09:30.658Z,0
2023-05-11T02:10:30.652Z,0
2023-05-11T02:11:30.660Z,0
2023-05-11T02:12:30.654Z,0
2023-05-11T02:13:30.652Z,0
2023-05-11T02:14:30.656Z,0
2023-05-11T02:15:30.679Z,0
2023-05-11T02:16:30.734Z,0
2023-05-11T02:17:30.671Z,0
2023-05-11T02:18:30.676Z,0
2023-05-11T02:19:30.668Z,0
2023-05-11T02:20:30.663Z,0
2023-05-11T02:21:30.665Z,0
2023-05-11T02:22:30.668Z,0
2023-05-11T02:23:30.667Z,0
2023-05-11T02:24:30.656Z,0
2023-05-11T02:25:30.658Z,0
2023-05-11T02:26:30.657Z,0
2023-05-11T02:27:30.660Z,0
2023-05-11T02:28:30.653Z,0
2023-05-11T02:29:30.659Z,0
2023-05-11T02:30:30.659Z,0
2023-05-11T02:31:30.709Z,0
2023-05-11T02:32:30.679Z,0
2023-05-11T02:33:30.653Z,0
2023-05-11T02:34:30.659Z,0
2023-05-11T02:35:30.651Z,0
2023-05-11T02:36:30.657Z,0
2023-05-11T02:37:30.650Z,0
2023-05-11T02:38:30.656Z,0
2023-05-11T02:39:30.662Z,0
2023-05-11T02:40:30.652Z,0
2023-05-11T02:41:30.650Z,0
2023-05-11T02:42:30.662Z,0
2023-05-11T02:43:30.654Z,0
2023-05-11T02:44:30.657Z,0
2023-05-11T02:45:30.662Z,0
2023-05-11T02:46:30.682Z,0
2023-05-11T02:47:30.695Z,0
2023-05-11T02:48:30.637Z,1
2023-05-11T02:49:30.659Z,1
2023-05-11T02:50:30.652Z,1
2023-05-11T02:51:30.655Z,3
2023-05-11T02:52:30.647Z,3
2023-05-11T02:53:32.754Z,5
2023-05-11T02:54:30.661Z,7
2023-05-11T02:55:30.652Z,9
2023-05-11T02:56:30.654Z,9
2023-05-11T02:57:30.645Z,11
2023-05-11T02:58:30.712Z,12
2023-05-11T02:59:30.657Z,16
2023-05-11T03:00:30.715Z,18
2023-05-11T03:01:31.067Z,20
2023-05-11T03:02:30.955Z,23
2023-05-11T03:03:30.768Z,27
2023-05-11T03:04:30.644Z,33
2023-05-11T03:05:30.650Z,36
2023-05-11T03:06:30.646Z,42
2023-05-11T03:07:30.643Z,42
2023-05-11T03:08:30.665Z,57
2023-05-11T03:09:30.650Z,62
2023-05-11T03:10:30.649Z,71
2023-05-11T03:11:30.650Z,79
2023-05-11T03:12:30.651Z,90
2023-05-11T03:13:30.656Z,101
2023-05-11T03:14:30.649Z,112
2023-05-11T03:15:30.689Z,125
2023-05-11T03:16:30.676Z,138
2023-05-11T03:17:30.685Z,151
2023-05-11T03:18:30.680Z,165
2023-05-11T03:19:30.640Z,180
2023-05-11T03:20:30.667Z,195
2023-05-11T03:21:30.660Z,211
2023-05-11T03:22:30.669Z,230
2023-05-11T03:23:30.663Z,250
2023-05-11T03:24:30.655Z,269
2023-05-11T03:25:30.658Z,287
2023-05-11T03:26:30.643Z,309
2023-05-11T03:27:30.657Z,329
2023-05-11T03:28:30.665Z,353
2023-05-11T03:29:30.655Z,377
2023-05-11T03:30:30.663Z,403
2023-05-11T03:31:30.662Z,429
2023-05-11T03:32:30.708Z,455
2023-05-11T03:33:30.667Z,484
2023-05-11T03:34:30.653Z,512
2023-05-11T03:35:30.651Z,540
2023-05-11T03:36:30.653Z,569
2023-05-11T03:37:30.658Z,602
2023-05-11T03:38:30.669Z,632
2023-05-11T03:39:30.669Z,665
2023-05-11T03:40:30.660Z,698
2023-05-11T03:41:30.657Z,733
2023-05-11T03:42:30.661Z,766
2023-05-11T03:43:30.668Z,801
2023-05-11T03:44:30.664Z,838
2023-05-11T03:45:30.670Z,877
2023-05-11T03:46:30.804Z,912
2023-05-11T03:47:30.708Z,949
2023-05-11T03:48:30.651Z,986
2023-05-11T03:49:30.652Z,1024
2023-05-11T03:50:30.688Z,1067
2023-05-11T03:51:30.660Z,1104
2023-05-11T03:52:30.678Z,1152
2023-05-11T03:53:30.657Z,1183
2023-05-11T03:54:30.656Z,1227
2023-05-11T03:55:30.660Z,1249
2023-05-11T03:56:30.660Z,1295
2023-05-11T03:57:30.668Z,1325
2023-05-11T03:58:30.668Z,1369
2023-05-11T03:59:30.660Z,1406
2023-05-11T04:00:30.656Z,1443
2023-05-11T04:01:30.657Z,1480
2023-05-11T04:02:30.730Z,1524
2023-05-11T04:03:30.864Z,1553
2023-05-11T04:04:30.930Z,1596
2023-05-11T04:05:30.652Z,1633
2023-05-11T04:06:30.656Z,1666
2023-05-11T04:07:30.658Z,1666
2023-05-11T04:08:30.665Z,1732
2023-05-11T04:09:30.677Z,1775
2023-05-11T04:10:30.641Z,1804
2023-05-11T04:11:30.680Z,1848
2023-05-11T04:12:30.656Z,1876
2023-05-11T04:13:30.659Z,1913
2023-05-11T04:14:30.660Z,1937
2023-05-11T04:15:30.670Z,1968
2023-05-11T04:16:30.704Z,2009
2023-05-11T04:17:30.692Z,2047
2023-05-11T04:18:30.696Z,2077
2023-05-11T04:19:30.645Z,2114
2023-05-11T04:20:30.650Z,2147
2023-05-11T04:21:30.652Z,2182
2023-05-11T04:22:30.643Z,2184
2023-05-11T04:23:30.655Z,2167
2023-05-11T04:24:30.655Z,2197
2023-05-11T04:25:30.656Z,2208
2023-05-11T04:26:30.654Z,2261
2023-05-11T04:27:30.645Z,2329
2023-05-11T04:28:30.656Z,2366
2023-05-11T04:29:30.662Z,2386
2023-05-11T04:30:30.683Z,2420
2023-05-11T04:31:30.753Z,2462
2023-05-11T04:32:30.697Z,2462
2023-05-11T04:33:30.662Z,2492
2023-05-11T04:34:30.652Z,2493
2023-05-11T04:35:30.649Z,2543
2023-05-11T04:36:30.656Z,2576
2023-05-11T04:37:30.654Z,2591
2023-05-11T04:38:30.660Z,2621
2023-05-11T04:39:30.648Z,2657
2023-05-11T04:40:31.123Z,2694
2023-05-11T04:41:30.648Z,2724
2023-05-11T04:42:30.647Z,2735
2023-05-11T04:43:30.655Z,2774
2023-05-11T04:44:30.668Z,2809
2023-05-11T04:45:30.677Z,2823
2023-05-11T04:46:30.674Z,2855
2023-05-11T04:47:30.678Z,2862
2023-05-11T04:48:30.671Z,2895
2023-05-11T04:49:30.663Z,2923
2023-05-11T04:50:30.640Z,2932
2023-05-11T04:51:30.663Z,2943
2023-05-11T04:52:30.647Z,2971
2023-05-11T04:53:30.666Z,2967
2023-05-11T04:54:30.650Z,2989
2023-05-11T04:55:30.666Z,2998
2023-05-11T04:56:30.645Z,3015
2023-05-11T04:57:30.676Z,3032
2023-05-11T04:58:30.658Z,3054
2023-05-11T04:59:30.667Z,3072
2023-05-11T05:00:30.651Z,3079
2023-05-11T05:01:30.698Z,3091
2023-05-11T05:02:30.692Z,3103
2023-05-11T05:03:30.666Z,3131
2023-05-11T05:04:30.652Z,3140
2023-05-11T05:05:30.646Z,3159
2023-05-11T05:06:30.672Z,3197
2023-05-11T05:07:30.649Z,3197
2023-05-11T05:08:30.672Z,3242
2023-05-11T05:09:30.750Z,3267
2023-05-11T05:10:30.652Z,3282
2023-05-11T05:11:30.656Z,3308
2023-05-11T05:12:30.654Z,3330
2023-05-11T05:13:30.669Z,3367
2023-05-11T05:14:30.664Z,3404
2023-05-11T05:15:30.669Z,3417
2023-05-11T05:16:32.431Z,3419
2023-05-11T05:17:30.683Z,3443
2023-05-11T05:18:30.683Z,3478
2023-05-11T05:19:30.660Z,3502
2023-05-11T05:20:30.646Z,3492
2023-05-11T05:21:30.648Z,3509
2023-05-11T05:22:30.666Z,3518
2023-05-11T05:23:30.718Z,3555
2023-05-11T05:24:30.660Z,3581
2023-05-11T05:25:30.663Z,3621
2023-05-11T05:26:30.660Z,3629
2023-05-11T05:27:32.234Z,3662
2023-05-11T05:28:30.657Z,3675
2023-05-11T05:29:30.668Z,3754
2023-05-11T05:30:30.671Z,3736
2023-05-11T05:31:30.807Z,3776
2023-05-11T05:32:30.700Z,3811
2023-05-11T05:33:30.660Z,3844
2023-05-11T05:34:30.675Z,3889
2023-05-11T05:35:30.669Z,3970
2023-05-11T05:36:30.660Z,3937
2023-05-11T05:37:30.662Z,3981
2023-05-11T05:38:30.652Z,3964
2023-05-11T05:39:30.660Z,3979
2023-05-11T05:40:30.648Z,4038
2023-05-11T05:41:30.659Z,4056
2023-05-11T05:42:30.669Z,4090
2023-05-11T05:43:30.662Z,4106
2023-05-11T05:44:30.671Z,4160
2023-05-11T05:45:30.668Z,4195
2023-05-11T05:46:30.684Z,4231
2023-05-11T05:47:30.685Z,4279
2023-05-11T05:48:30.656Z,4292
2023-05-11T05:49:30.665Z,4327
2023-05-11T05:50:30.653Z,4349
2023-05-11T05:51:30.661Z,4390
2023-05-11T05:52:30.668Z,4421
2023-05-11T05:53:30.668Z,4473
2023-05-11T05:54:30.661Z,4514
2023-05-11T05:55:30.670Z,4543
2023-05-11T05:56:30.674Z,4584
2023-05-11T05:57:30.802Z,4593
2023-05-11T05:58:30.658Z,4613
2023-05-11T05:59:30.657Z,4668
2023-05-11T06:00:30.661Z,4703
2023-05-11T06:01:30.662Z,4707
2023-05-11T06:02:30.717Z,4751
2023-05-11T06:03:30.784Z,4764
2023-05-11T06:04:30.658Z,4797
2023-05-11T06:05:30.670Z,4840
2023-05-11T06:06:30.660Z,4866
2023-05-11T06:07:30.663Z,4866
2023-05-11T06:08:30.666Z,4941
2023-05-11T06:09:30.648Z,4972
2023-05-11T06:10:30.665Z,5006
2023-05-11T06:11:30.662Z,5030
2023-05-11T06:12:30.647Z,5065
2023-05-11T06:13:30.659Z,5096
2023-05-11T06:14:30.656Z,5124
2023-05-11T06:15:30.671Z,5144
2023-05-11T06:16:30.674Z,5177
2023-05-11T06:17:30.686Z,5229
2023-05-11T06:18:30.717Z,5245
2023-05-11T06:19:30.663Z,5269
2023-05-11T06:20:30.648Z,5277
2023-05-11T06:21:30.657Z,5293
2023-05-11T06:22:30.648Z,5330
2023-05-11T06:23:30.647Z,5354
2023-05-11T06:24:30.662Z,5395
2023-05-11T06:25:30.659Z,5419
2023-05-11T06:26:30.657Z,5457
2023-05-11T06:27:30.655Z,5472
2023-05-11T06:28:30.656Z,5501
2023-05-11T06:29:30.661Z,5514
2023-05-11T06:30:30.658Z,5538
2023-05-11T06:31:30.701Z,5570
2023-05-11T06:32:30.671Z,5597
2023-05-11T06:33:30.651Z,5601
2023-05-11T06:34:30.664Z,5673
2023-05-11T06:35:30.657Z,5701
2023-05-11T06:36:30.664Z,5745
2023-05-11T06:37:30.689Z,5800
2023-05-11T06:38:30.656Z,5802
2023-05-11T06:39:30.659Z,5846
2023-05-11T06:40:30.645Z,5901
2023-05-11T06:41:30.654Z,5918
2023-05-11T06:42:30.669Z,6019
2023-05-11T06:43:30.676Z,6060
2023-05-11T06:44:30.657Z,5962
2023-05-11T06:45:30.823Z,6027
2023-05-11T06:46:30.725Z,6086
2023-05-11T06:47:30.669Z,6099
2023-05-11T06:48:30.689Z,6136
2023-05-11T06:49:30.660Z,6255
2023-05-11T06:50:30.843Z,6655
2023-05-11T06:51:30.672Z,8539
2023-05-11T06:52:30.676Z,10454
2023-05-11T06:53:30.667Z,11003
2023-05-11T06:54:30.657Z,11169
2023-05-11T06:55:30.664Z,10740
2023-05-11T06:56:30.662Z,11215
2023-05-11T06:57:30.670Z,11525
2023-05-11T06:58:30.655Z,11829
2023-05-11T06:59:30.658Z,11661
2023-05-11T07:00:30.681Z,11783
2023-05-11T07:01:30.694Z,12076
2023-05-11T07:02:30.675Z,12246
2023-05-11T07:03:30.655Z,13818
2023-05-11T07:04:30.689Z,11940
2023-05-11T07:05:30.658Z,11787
2023-05-11T07:06:30.661Z,11778
2023-05-11T07:07:30.663Z,11778
2023-05-11T07:08:30.664Z,11792
2023-05-11T07:09:30.654Z,11759
2023-05-11T07:10:30.640Z,11545
2023-05-11T07:11:30.661Z,11558
2023-05-11T07:12:30.698Z,12030
2023-05-11T07:13:30.664Z,12692
2023-05-11T07:14:30.661Z,12495
2023-05-11T07:15:30.691Z,12607
2023-05-11T07:16:30.688Z,12347
2023-05-11T07:17:30.669Z,12618
2023-05-11T07:18:30.714Z,12769
2023-05-11T07:19:30.659Z,13094
2023-05-11T07:20:30.649Z,13307
2023-05-11T07:21:30.663Z,13112
2023-05-11T07:22:30.660Z,14329
2023-05-11T07:23:30.659Z,12775
2023-05-11T07:24:30.673Z,12861
2023-05-11T07:25:30.658Z,12847
2023-05-11T07:26:30.659Z,13392
2023-05-11T07:27:30.650Z,13553
2023-05-11T07:28:30.657Z,13753
2023-05-11T07:29:30.658Z,13549
2023-05-11T07:30:30.672Z,13400
2023-05-11T07:31:30.681Z,12987
2023-05-11T07:32:30.681Z,12288
2023-05-11T07:33:30.657Z,12364
2023-05-11T07:34:30.650Z,13009
2023-05-11T07:35:30.661Z,12605
2023-05-11T07:36:30.663Z,13383
2023-05-11T07:37:30.678Z,13982
2023-05-11T07:38:30.660Z,14539
2023-05-11T07:39:30.678Z,15018
2023-05-11T07:40:30.654Z,14635
2023-05-11T07:41:30.660Z,14271
2023-05-11T07:42:30.647Z,14343
2023-05-11T07:43:30.668Z,14351
2023-05-11T07:44:30.667Z,15117
2023-05-11T07:45:30.666Z,15293
2023-05-11T07:46:30.693Z,16076
2023-05-11T07:47:30.685Z,16347
2023-05-11T07:48:30.675Z,16201
2023-05-11T07:49:40.084Z,15906
2023-05-11T07:50:30.657Z,16052
2023-05-11T07:51:30.660Z,15980
2023-05-11T07:52:30.656Z,16146
2023-05-11T07:53:30.658Z,16194
2023-05-11T07:54:30.655Z,16227
2023-05-11T07:55:30.691Z,16421
2023-05-11T07:56:30.655Z,16505
2023-05-11T07:57:30.669Z,17108
2023-05-11T07:58:30.661Z,16880
2023-05-11T07:59:30.657Z,15798
2023-05-11T08:00:30.654Z,15429
2023-05-11T08:01:30.653Z,15457
2023-05-11T08:02:30.742Z,15281
2023-05-11T08:03:30.686Z,16052
2023-05-11T08:04:30.649Z,16057
2023-05-11T08:05:30.684Z,17215
2023-05-11T08:06:30.651Z,15801
2023-05-11T08:07:30.662Z,15801
2023-05-11T08:08:30.658Z,17069
2023-05-11T08:09:30.652Z,17773
2023-05-11T08:10:30.650Z,16336
2023-05-11T08:11:30.659Z,16481
2023-05-11T08:12:30.671Z,16601
2023-05-11T08:13:30.686Z,16572
2023-05-11T08:14:30.671Z,16186
2023-05-11T08:15:30.689Z,16280
2023-05-11T08:16:30.698Z,16304
2023-05-11T08:17:30.677Z,16207
2023-05-11T08:18:30.687Z,16527
2023-05-11T08:19:30.656Z,16104
2023-05-11T08:20:30.656Z,16255
2023-05-11T08:21:30.662Z,16636
2023-05-11T08:22:30.662Z,16926
2023-05-11T08:23:30.653Z,16981
2023-05-11T08:24:30.656Z,17372
2023-05-11T08:25:30.658Z,17479
2023-05-11T08:26:30.658Z,17442
2023-05-11T08:27:30.656Z,17088
2023-05-11T08:28:30.656Z,17237
2023-05-11T08:29:30.663Z,17219
2023-05-11T08:30:30.653Z,17278
2023-05-11T08:31:30.708Z,17259
2023-05-11T08:32:30.728Z,17737
2023-05-11T08:34:30.810Z,18439
2023-05-11T08:35:30.663Z,18168
2023-05-11T08:36:30.660Z,18033
2023-05-11T08:37:30.658Z,18103
2023-05-11T08:38:30.654Z,18011
2023-05-11T08:39:45.952Z,17801
2023-05-11T08:40:30.663Z,18420
2023-05-11T08:41:30.649Z,18636
2023-05-11T08:42:30.659Z,19383
2023-05-11T08:43:30.652Z,18144
2023-05-11T08:44:30.660Z,17790
2023-05-11T08:45:30.672Z,17165
2023-05-11T08:46:30.659Z,17383
2023-05-11T08:47:30.694Z,17040
2023-05-11T08:48:30.659Z,16738
2023-05-11T08:49:30.662Z,16229
2023-05-11T08:50:30.664Z,15068
2023-05-11T08:51:30.671Z,15995
2023-05-11T08:52:30.677Z,16373
2023-05-11T08:53:30.663Z,17244
2023-05-11T08:54:30.672Z,17576
2023-05-11T08:55:30.658Z,16516
2023-05-11T08:56:30.650Z,17053
2023-05-11T08:57:30.661Z,17252
2023-05-11T08:58:30.666Z,17742
2023-05-11T08:59:30.655Z,17941
2023-05-11T09:00:30.671Z,18332
2023-05-11T09:01:30.738Z,18426
2023-05-11T09:02:30.703Z,17532
2023-05-11T09:03:30.660Z,18391
2023-05-11T09:04:30.655Z,15589
2023-05-11T09:05:30.685Z,12581
2023-05-11T09:06:30.661Z,18168
2023-05-11T09:07:30.646Z,18168
2023-05-11T09:08:30.666Z,17943
2023-05-11T09:09:30.651Z,18299
2023-05-11T09:10:30.648Z,17978
2023-05-11T09:11:30.655Z,14603
2023-05-11T09:12:30.654Z,12273
2023-05-11T09:13:30.649Z,15434
2023-05-11T09:14:30.654Z,13628
2023-05-11T09:15:36.860Z,15246
2023-05-11T09:16:37.340Z,16625
2023-05-11T09:17:30.766Z,15610
2023-05-11T09:18:30.673Z,18570
2023-05-11T09:19:30.658Z,18948
2023-05-11T09:20:30.658Z,19969
2023-05-11T09:21:30.653Z,17248
2023-05-11T09:22:33.184Z,15377
2023-05-11T09:23:30.662Z,17237
2023-05-11T09:24:30.656Z,19241
2023-05-11T09:25:30.681Z,18763
2023-05-11T09:26:30.661Z,19777
2023-05-11T09:27:30.660Z,20503
2023-05-11T09:29:30.920Z,17103
2023-05-11T09:30:30.669Z,21574
2023-05-11T09:31:30.696Z,20181
2023-05-11T09:32:30.685Z,20203
2023-05-11T09:33:30.667Z,18022
2023-05-11T09:34:30.653Z,19425
2023-05-11T09:35:30.665Z,14714
2023-05-11T09:36:30.662Z,19808
2023-05-11T09:37:30.665Z,15162
2023-05-11T09:38:30.656Z,13361
2023-05-11T09:39:37.831Z,11857
2023-05-11T09:41:34.903Z,15554
2023-05-11T09:42:30.651Z,13468
2023-05-11T09:43:30.658Z,20689
2023-05-11T09:44:30.670Z,14644
2023-05-11T09:45:30.829Z,13503
2023-05-11T09:46:30.735Z,12574
2023-05-11T09:47:30.666Z,10803
2023-05-11T09:48:30.663Z,9792
2023-05-11T09:49:30.658Z,8882
2023-05-11T09:50:30.665Z,8546
2023-05-11T09:51:30.667Z,8753
2023-05-11T09:52:30.667Z,9208
2023-05-11T09:53:30.649Z,10178
2023-05-11T09:54:30.671Z,11179
2023-05-11T09:55:30.667Z,11514
2023-05-11T09:56:30.645Z,21499
2023-05-11T09:57:30.706Z,12270
2023-05-11T09:58:30.660Z,11706
2023-05-11T09:59:30.669Z,11625
2023-05-11T10:00:30.686Z,11569
2023-05-11T10:01:30.721Z,12850
2023-05-11T10:02:30.783Z,19443
2023-05-11T10:03:30.692Z,21416
2023-05-11T10:04:30.815Z,21300
2023-05-11T10:05:30.663Z,21178
2023-05-11T10:06:30.654Z,21281
2023-05-11T10:07:30.682Z,21281
2023-05-11T10:08:30.660Z,21862
2023-05-11T10:09:30.670Z,21158
2023-05-11T10:10:30.657Z,10517
2023-05-11T10:11:30.666Z,10694
2023-05-11T10:12:30.673Z,11013
2023-05-11T10:13:30.676Z,11035
2023-05-11T10:14:30.671Z,9721
2023-05-11T10:15:30.716Z,9088
2023-05-11T10:16:30.689Z,9079
2023-05-11T10:17:30.730Z,9566
2023-05-11T10:18:30.692Z,10657
2023-05-11T10:19:30.658Z,12535
2023-05-11T10:20:30.645Z,9735
2023-05-11T10:21:36.013Z,8716
2023-05-11T10:22:35.066Z,8449
2023-05-11T10:23:35.021Z,8576
2023-05-11T10:24:35.011Z,8994
2023-05-11T10:25:35.008Z,9367
2023-05-11T10:26:35.017Z,9619
2023-05-11T10:27:35.026Z,9945
2023-05-11T10:28:35.016Z,10788
2023-05-11T10:29:35.013Z,17904
2023-05-11T10:30:35.019Z,13632
2023-05-11T10:31:35.079Z,13706
2023-05-11T10:32:35.078Z,11652
2023-05-11T10:33:35.013Z,10179
2023-05-11T10:34:34.996Z,9660
2023-05-11T10:35:35.014Z,8886
2023-05-11T10:36:35.005Z,8373
2023-05-11T10:37:35.002Z,8025
2023-05-11T10:38:35.009Z,8008
2023-05-11T10:39:35.004Z,8349
2023-05-11T10:40:35.006Z,9053
2023-05-11T10:41:35.001Z,9864
2023-05-11T10:42:35.019Z,11031
2023-05-11T10:43:34.998Z,10089
2023-05-11T10:44:35.011Z,10148
2023-05-11T10:45:35.020Z,9700
2023-05-11T10:46:35.051Z,9691
2023-05-11T10:47:35.021Z,9748
2023-05-11T10:48:35.010Z,9905
2023-05-11T10:49:35.001Z,9934
2023-05-11T10:50:35.008Z,9686
2023-05-11T10:51:35.001Z,9918
2023-05-11T10:52:34.998Z,10366
2023-05-11T10:53:35.005Z,11195
2023-05-11T10:54:35.002Z,10642
2023-05-11T10:55:34.989Z,10109
2023-05-11T10:56:35.008Z,9016
2023-05-11T10:57:35.000Z,8178
2023-05-11T10:58:34.987Z,7522
2023-05-11T10:59:35.003Z,7107
2023-05-11T11:00:35.059Z,6856
2023-05-11T11:01:35.087Z,6665
2023-05-11T11:02:35.024Z,6696
2023-05-11T11:03:34.990Z,7076
2023-05-11T11:04:35.000Z,7485
2023-05-11T11:05:35.051Z,7951
2023-05-11T11:06:35.003Z,8714
2023-05-11T11:07:35.002Z,8714
2023-05-11T11:08:34.997Z,10238
2023-05-11T11:09:35.002Z,11311
2023-05-11T11:10:35.014Z,13530
2023-05-11T11:11:35.022Z,13401
2023-05-11T11:12:35.017Z,14336
2023-05-11T11:13:35.001Z,13206
2023-05-11T11:14:35.001Z,16126
2023-05-11T11:15:35.017Z,14159
2023-05-11T11:16:35.039Z,14636
2023-05-11T11:17:35.198Z,14681
2023-05-11T11:18:35.015Z,16574
2023-05-11T11:19:35.003Z,15383
2023-05-11T11:20:35.007Z,15740
2023-05-11T11:21:34.997Z,18911
2023-05-11T11:22:35.111Z,21300
2023-05-11T11:23:35.006Z,15505
2023-05-11T11:24:35.001Z,18030
2023-05-11T11:25:35.002Z,18868
2023-05-11T11:26:34.998Z,18889
2023-05-11T11:27:34.995Z,20477
2023-05-11T11:28:35.003Z,18754
2023-05-11T11:29:35.003Z,18039
2023-05-11T11:30:35.015Z,14008
2023-05-11T11:31:35.005Z,10688
2023-05-11T11:32:35.020Z,9933
2023-05-11T11:33:35.022Z,8207
2023-05-11T11:34:35.003Z,7627
2023-05-11T11:35:34.998Z,7267
2023-05-11T11:36:34.996Z,7079
2023-05-11T11:37:35.000Z,6982
2023-05-11T11:38:35.030Z,7059
2023-05-11T11:39:34.988Z,7291
2023-05-11T11:40:46.868Z,7494
2023-05-11T11:41:34.981Z,7868
2023-05-11T11:42:35.010Z,8274
2023-05-11T11:43:36.057Z,8714
2023-05-11T11:44:34.999Z,9162
2023-05-11T11:45:35.019Z,9389
2023-05-11T11:46:35.033Z,9510
2023-05-11T11:47:35.052Z,9518
2023-05-11T11:48:35.001Z,9599
2023-05-11T11:49:34.994Z,9768
2023-05-11T11:50:34.996Z,9647
2023-05-11T11:51:34.997Z,9709
2023-05-11T11:52:35.016Z,9728
2023-05-11T11:53:35.018Z,9728
2023-05-11T11:54:34.994Z,9807
2023-05-11T11:55:34.986Z,9951
2023-05-11T11:56:34.999Z,10093
2023-05-11T11:57:35.020Z,10309
2023-05-11T11:58:35.023Z,10434
2023-05-11T11:59:35.005Z,10710
2023-05-11T12:00:34.996Z,11035
2023-05-11T12:01:35.005Z,11449
2023-05-11T12:02:35.176Z,13136
2023-05-11T12:03:35.116Z,11829
2023-05-11T12:04:35.025Z,12181
2023-05-11T12:05:35.000Z,12321
2023-05-11T12:06:35.000Z,18702
2023-05-11T12:07:35.000Z,18702
2023-05-11T12:08:34.991Z,14264
2023-05-11T12:09:35.042Z,16697
2023-05-11T12:10:34.996Z,13247
2023-05-11T12:11:35.006Z,13119
2023-05-11T12:12:34.995Z,13879
2023-05-11T12:13:34.989Z,12546
2023-05-11T12:14:34.992Z,13318
2023-05-11T12:15:35.029Z,17696
2023-05-11T12:16:35.006Z,13119
2023-05-11T12:17:35.016Z,19303
2023-05-11T12:18:35.023Z,16787
2023-05-11T12:19:35.006Z,12642
2023-05-11T12:20:35.000Z,12517
2023-05-11T12:21:34.990Z,13805
2023-05-11T12:22:34.998Z,14098
2023-05-11T12:23:34.983Z,12515
2023-05-11T12:24:34.994Z,18103
2023-05-11T12:25:35.001Z,10080
2023-05-11T12:26:34.986Z,9874
2023-05-11T12:27:34.996Z,9949
2023-05-11T12:28:34.998Z,10124
2023-05-11T12:29:35.006Z,10294
2023-05-11T12:30:35.009Z,10561
2023-05-11T12:31:35.025Z,10843
2023-05-11T12:32:35.019Z,10823
2023-05-11T12:33:35.000Z,10729
2023-05-11T12:34:35.001Z,11086
2023-05-11T12:35:35.029Z,11284
2023-05-11T12:36:35.006Z,11120
2023-05-11T12:37:34.988Z,15904
2023-05-11T12:38:35.009Z,11766
2023-05-11T12:39:35.007Z,10023
2023-05-11T12:40:35.002Z,9015
2023-05-11T12:41:35.000Z,8532
2023-05-11T12:42:35.329Z,8235
2023-05-11T12:43:34.998Z,7879
2023-05-11T12:44:34.996Z,7518
2023-05-11T12:45:35.007Z,7236
2023-05-11T12:46:35.038Z,7361
2023-05-11T12:47:35.100Z,6841
2023-05-11T12:48:35.012Z,6383
2023-05-11T12:49:34.989Z,6056
2023-05-11T12:50:34.999Z,5791
2023-05-11T12:51:35.001Z,5721
2023-05-11T12:52:35.004Z,5689
2023-05-11T12:53:35.032Z,5732
2023-05-11T12:54:35.017Z,5798
2023-05-11T12:55:34.996Z,5894
2023-05-11T12:56:34.991Z,5971
2023-05-11T12:57:35.001Z,6065
2023-05-11T12:58:34.986Z,6362
2023-05-11T12:59:35.003Z,6414
2023-05-11T13:00:35.010Z,6471
2023-05-11T13:01:35.030Z,6480
2023-05-11T13:02:35.064Z,6589
2023-05-11T13:03:35.053Z,6729
2023-05-11T13:04:34.994Z,6970
2023-05-11T13:05:34.995Z,7278
2023-05-11T13:06:34.988Z,7544
2023-05-11T13:07:34.998Z,7544
2023-05-11T13:08:34.995Z,8030
2023-05-11T13:09:35.001Z,8301
2023-05-11T13:10:34.987Z,8502
2023-05-11T13:11:34.997Z,8766
2023-05-11T13:12:34.984Z,9046
2023-05-11T13:13:34.998Z,9350
2023-05-11T13:14:34.988Z,9615
2023-05-11T13:15:35.011Z,9842
2023-05-11T13:16:35.032Z,10124
2023-05-11T13:17:35.018Z,10443
2023-05-11T13:18:35.060Z,10751
2023-05-11T13:19:35.014Z,10841
2023-05-11T13:20:35.003Z,10679
2023-05-11T13:21:35.000Z,11273
2023-05-11T13:22:34.985Z,15390
2023-05-11T13:23:34.997Z,11344
2023-05-11T13:24:35.052Z,10887
2023-05-11T13:25:35.006Z,10611
2023-05-11T13:26:35.006Z,10216
2023-05-11T13:27:34.995Z,10452
2023-05-11T13:28:35.010Z,10920
2023-05-11T13:29:35.000Z,10655
2023-05-11T13:30:35.495Z,11044
2023-05-11T13:31:35.056Z,11267